Time;durP1;ratioP1;P1;durP2;ratioP2;P2;SDS_P1;SDS_P2;PMS_P1;PMS_P2;Temp;Humidity;BMP_temperature;BMP_pressure;BME280_temperature;BME280_humidity;BME280_pressure;Samples;Min_cycle;Max_cycle;Signal;HPM_P1;HPM_P2
2022/06/29 00:00:51;;;;;;;7.22;3.53;;;16.20;99.90;;;;;;5039021;28;20395;-47
2022/06/29 00:03:17;;;;;;;9.00;5.18;;;16.20;99.90;;;;;;5041204;28;20049;-44
2022/06/29 00:05:43;;;;;;;5.75;2.97;;;16.30;99.90;;;;;;5040199;28;20044;-44
2022/06/29 00:08:08;;;;;;;9.60;3.90;;;16.30;99.90;;;;;;5022642;28;20132;-43
2022/06/29 00:10:36;;;;;;;5.03;3.58;;;16.30;99.90;;;;;;5023933;28;20473;-45
2022/06/29 00:13:02;;;;;;;8.05;4.10;;;16.20;99.90;;;;;;5031660;28;20076;-43
2022/06/29 00:15:28;;;;;;;6.53;3.40;;;16.20;99.90;;;;;;5006242;28;20045;-45
2022/06/29 00:17:54;;;;;;;7.53;3.80;;;16.20;99.90;;;;;;5019605;28;20466;-44
2022/06/29 00:20:20;;;;;;;7.25;3.63;;;16.10;99.90;;;;;;5001509;28;20443;-45
2022/06/29 00:22:47;;;;;;;7.28;3.80;;;16.10;99.90;;;;;;5030526;28;20487;-44
2022/06/29 00:25:14;;;;;;;6.82;3.42;;;16.00;99.90;;;;;;5021274;28;20045;-43
2022/06/29 00:27:41;;;;;;;4.57;3.72;;;16.00;99.90;;;;;;5002665;28;20927;-44
2022/06/29 00:30:08;;;;;;;6.85;3.40;;;15.90;99.90;;;;;;5021743;28;20049;-43
2022/06/29 00:32:33;;;;;;;7.65;3.80;;;15.90;99.90;;;;;;5005271;28;20144;-47
2022/06/29 00:34:59;;;;;;;5.93;3.95;;;15.80;99.90;;;;;;5038958;28;20804;-45
2022/06/29 00:37:26;;;;;;;4.93;3.03;;;15.80;99.90;;;;;;5019942;28;20049;-45
2022/06/29 00:39:52;;;;;;;6.88;3.80;;;15.80;99.90;;;;;;5024384;28;20060;-46
2022/06/29 00:42:18;;;;;;;7.72;3.58;;;15.70;99.90;;;;;;5039328;28;20083;-44
2022/06/29 00:44:44;;;;;;;4.93;4.00;;;15.70;99.90;;;;;;5014033;28;20363;-47
2022/06/29 00:47:10;;;;;;;4.38;3.67;;;15.60;99.90;;;;;;5041003;28;20045;-43
2022/06/29 00:49:35;;;;;;;5.60;3.38;;;15.60;99.90;;;;;;5043119;28;20059;-44
2022/06/29 00:52:06;;;;;;;7.70;3.72;;;15.60;99.90;;;;;;5042165;28;20455;-43
2022/06/29 00:54:55;;;;;;;6.35;4.22;;;15.50;99.90;;;;;;5005739;28;20571;-45
2022/06/29 00:57:26;;;;;;;8.52;3.92;;;15.50;99.90;;;;;;5043226;28;20057;-43
2022/06/29 00:59:55;;;;;;;5.57;3.50;;;15.50;99.90;;;;;;5043204;28;20126;-43
2022/06/29 01:02:28;;;;;;;6.63;3.72;;;15.50;99.90;;;;;;5043038;28;20507;-45
2022/06/29 01:04:54;;;;;;;;;;;15.40;99.90;;;;;;5018099;28;20500;-43
2022/06/29 01:07:24;;;;;;;5.93;3.75;;;15.40;99.90;;;;;;5001009;28;19933;-43
2022/06/29 01:09:49;;;;;;;6.78;3.97;;;15.40;99.90;;;;;;5013989;28;20542;-45
2022/06/29 01:12:15;;;;;;;5.80;3.95;;;15.40;99.90;;;;;;5022341;28;20053;-43
2022/06/29 01:14:47;;;;;;;5.72;3.67;;;15.40;99.90;;;;;;5005926;28;20072;-43
2022/06/29 01:17:13;;;;;;;7.72;4.40;;;15.40;99.90;;;;;;5023664;28;20514;-43
2022/06/29 01:19:40;;;;;;;4.97;3.60;;;15.40;99.90;;;;;;5023154;28;20056;-45
2022/06/29 01:22:12;;;;;;;7.68;3.70;;;15.40;99.90;;;;;;5022389;28;20048;-45
2022/06/29 01:24:39;;;;;;;5.85;3.38;;;15.40;99.90;;;;;;5014808;28;20345;-44
2022/06/29 01:27:05;;;;;;;5.88;3.92;;;15.30;99.90;;;;;;5021317;28;20479;-43
2022/06/29 01:29:31;;;;;;;6.15;3.78;;;15.40;99.90;;;;;;5004591;28;20049;-43
2022/06/29 01:31:57;;;;;;;6.18;3.50;;;15.40;99.90;;;;;;5023216;28;20191;-44
2022/06/29 01:34:24;;;;;;;3.90;3.28;;;15.40;99.90;;;;;;5023329;28;20057;-43
2022/06/29 01:36:50;;;;;;;7.70;4.18;;;15.40;99.90;;;;;;5037947;28;20052;-45
2022/06/29 01:39:16;;;;;;;6.32;3.75;;;15.40;99.90;;;;;;5038886;28;20076;-43
2022/06/29 01:41:42;;;;;;;7.60;3.97;;;15.50;99.90;;;;;;5022485;28;20050;-43
2022/06/29 01:44:07;;;;;;;4.18;3.35;;;15.50;99.90;;;;;;5001145;28;20057;-44
2022/06/29 01:46:34;;;;;;;5.63;3.95;;;15.50;99.90;;;;;;5029649;28;20055;-44
2022/06/29 01:49:00;;;;;;;6.50;4.25;;;15.50;99.90;;;;;;5046786;28;20052;-44
2022/06/29 01:51:25;;;;;;;6.25;4.57;;;15.50;99.90;;;;;;5042673;28;20419;-45
2022/06/29 01:53:54;;;;;;;4.97;3.72;;;15.60;99.90;;;;;;5034168;28;20049;-43
2022/06/29 01:56:20;;;;;;;5.72;3.35;;;15.60;99.90;;;;;;5022788;28;20056;-44
2022/06/29 01:58:47;;;;;;;7.95;3.90;;;15.60;99.90;;;;;;5022103;28;20053;-45
2022/06/29 02:01:13;;;;;;;5.97;3.45;;;15.70;99.90;;;;;;5020163;28;20053;-43
2022/06/29 02:03:39;;;;;;;4.40;3.65;;;15.70;99.90;;;;;;5022105;28;20131;-44
2022/06/29 02:06:05;;;;;;;4.85;3.38;;;15.70;99.90;;;;;;5021933;28;20464;-44
2022/06/29 02:08:31;;;;;;;4.22;3.30;;;15.80;99.90;;;;;;5017379;28;20060;-44
2022/06/29 02:11:00;;;;;;;6.25;3.72;;;15.80;99.90;;;;;;5059791;28;20512;-44
2022/06/29 02:13:27;;;;;;;6.53;3.60;;;15.80;99.90;;;;;;5061476;28;20056;-45
2022/06/29 02:15:53;;;;;;;6.07;3.53;;;15.80;99.90;;;;;;5035559;28;20048;-45
2022/06/29 02:18:19;;;;;;;6.18;3.55;;;15.80;99.90;;;;;;5051278;28;20056;-44
2022/06/29 02:20:45;;;;;;;4.55;3.50;;;15.80;99.90;;;;;;5045371;28;20582;-44
2022/06/29 02:23:11;;;;;;;5.57;4.15;;;15.90;99.90;;;;;;5025396;28;20122;-44
2022/06/29 02:25:37;;;;;;;6.35;3.85;;;15.90;99.90;;;;;;5037283;28;20490;-44
2022/06/29 02:28:03;;;;;;;4.45;3.58;;;15.80;99.90;;;;;;5042034;28;20506;-44
2022/06/29 02:35:57;;;;;;;6.60;4.00;;;15.80;99.90;;;;;;5040063;28;20127;-43
2022/06/29 02:38:24;;;;;;;6.07;3.80;;;15.80;99.90;;;;;;5041033;28;20568;-44
2022/06/29 02:40:50;;;;;;;5.47;3.70;;;15.80;99.90;;;;;;5024338;28;20392;-43
2022/06/29 02:43:16;;;;;;;6.78;4.00;;;15.80;99.90;;;;;;5051931;28;20048;-43
2022/06/29 02:45:41;;;;;;;6.10;4.20;;;15.80;99.90;;;;;;5042953;28;20079;-44
2022/06/29 02:48:08;;;;;;;6.05;4.22;;;15.80;99.90;;;;;;5061362;28;20384;-45
2022/06/29 02:50:34;;;;;;;4.25;3.85;;;15.70;99.90;;;;;;5025130;28;20452;-44
2022/06/29 02:53:00;;;;;;;7.32;4.95;;;15.70;99.90;;;;;;5022731;28;20053;-44
2022/06/29 02:55:26;;;;;;;6.53;4.25;;;15.70;99.90;;;;;;5041098;28;20077;-44
2022/06/29 02:57:51;;;;;;;6.55;4.60;;;15.70;99.90;;;;;;5041431;28;20045;-44
2022/06/29 03:00:17;;;;;;;6.05;4.15;;;15.60;99.90;;;;;;5048467;28;20048;-44
2022/06/29 03:02:43;;;;;;;4.95;3.72;;;15.70;99.90;;;;;;5063029;28;20467;-44
2022/06/29 03:05:09;;;;;;;5.72;4.03;;;15.60;99.90;;;;;;5064784;28;20136;-44
2022/06/29 03:07:35;;;;;;;5.70;4.00;;;15.60;99.90;;;;;;5061725;28;20052;-50
2022/06/29 03:10:01;;;;;;;7.57;4.55;;;15.60;99.90;;;;;;5039484;28;20824;-44
2022/06/29 03:12:27;;;;;;;6.13;4.00;;;15.60;99.90;;;;;;5038105;28;20844;-44
2022/06/29 03:14:53;;;;;;;5.20;4.43;;;15.50;99.90;;;;;;5048088;28;20054;-44
2022/06/29 03:17:19;;;;;;;5.93;4.45;;;15.50;99.90;;;;;;5036126;28;20103;-44
2022/06/29 03:19:44;;;;;;;7.35;4.40;;;15.50;99.90;;;;;;5040275;28;20052;-43
2022/06/29 03:22:10;;;;;;;5.78;4.68;;;15.50;99.90;;;;;;5036192;28;20350;-43
2022/06/29 03:24:39;;;;;;;6.18;4.40;;;15.50;99.90;;;;;;5040604;28;20497;-45
2022/06/29 03:27:05;;;;;;;7.68;4.57;;;15.50;99.90;;;;;;5039544;28;20057;-43
2022/06/29 03:29:34;;;;;;;7.22;4.78;;;15.40;99.90;;;;;;5040070;28;20072;-43
2022/06/29 03:31:59;;;;;;;6.18;4.60;;;15.50;99.90;;;;;;5031311;28;20045;-45
2022/06/29 03:34:28;;;;;;;6.43;4.60;;;15.50;99.90;;;;;;5039491;28;20567;-44
2022/06/29 03:36:53;;;;;;;5.53;3.92;;;15.50;99.90;;;;;;5060679;28;20448;-43
2022/06/29 03:39:19;;;;;;;7.43;4.80;;;15.50;99.90;;;;;;5056019;28;20045;-43
2022/06/29 03:41:45;;;;;;;6.43;4.63;;;15.50;99.90;;;;;;5040053;28;20537;-46
2022/06/29 03:44:10;;;;;;;6.35;4.57;;;15.60;99.90;;;;;;5044570;28;20040;-44
2022/06/29 03:46:37;;;;;;;7.30;5.00;;;15.60;99.90;;;;;;5040025;28;20045;-43
2022/06/29 03:49:03;;;;;;;5.53;4.68;;;15.60;99.90;;;;;;5040279;28;20521;-45
2022/06/29 03:51:29;;;;;;;4.90;3.97;;;15.70;99.90;;;;;;5039536;28;20053;-45
2022/06/29 03:53:54;;;;;;;5.68;4.40;;;15.70;99.90;;;;;;5057255;28;20052;-43
2022/06/29 03:56:20;;;;;;;7.38;4.93;;;15.80;99.90;;;;;;5039522;28;20139;-44
2022/06/29 03:58:46;;;;;;;7.55;4.05;;;15.90;99.90;;;;;;5035194;28;20052;-44
2022/06/29 04:01:11;;;;;;;6.30;3.90;;;16.00;99.90;;;;;;5041799;28;20055;-44
2022/06/29 04:03:37;;;;;;;5.28;3.97;;;16.40;99.90;;;;;;5054798;28;20136;-43
2022/06/29 04:06:03;;;;;;;6.35;4.47;;;17.00;99.90;;;;;;5005882;28;20060;-43
2022/06/29 04:08:29;;;;;;;5.65;3.70;;;17.80;99.90;;;;;;5039993;28;20049;-44
2022/06/29 04:10:58;;;;;;;5.75;3.50;;;18.60;99.90;;;;;;5021724;28;20049;-44
2022/06/29 04:13:23;;;;;;;4.82;3.85;;;18.70;99.90;;;;;;5035647;28;20062;-43
2022/06/29 04:15:50;;;;;;;6.13;4.10;;;18.40;99.90;;;;;;5013574;28;20573;-44
2022/06/29 04:18:15;;;;;;;7.00;4.38;;;18.30;99.90;;;;;;5027613;28;20045;-45
2022/06/29 04:23:26;;;;;;;5.13;3.92;;;18.20;99.90;;;;;;5043746;28;20055;-44
2022/06/29 04:25:52;;;;;;;5.22;3.83;;;18.60;99.90;;;;;;5020176;28;20060;-44
2022/06/29 04:28:17;;;;;;;7.07;4.15;;;19.60;99.90;;;;;;5042393;28;20061;-46
2022/06/29 04:30:43;;;;;;;5.28;4.10;;;20.60;99.90;;;;;;5043729;28;20040;-45
2022/06/29 04:33:09;;;;;;;5.13;3.88;;;21.20;99.90;;;;;;5043911;28;20150;-45
2022/06/29 04:35:35;;;;;;;5.50;3.75;;;21.10;99.90;;;;;;5042909;28;20052;-44
2022/06/29 04:38:01;;;;;;;8.80;4.57;;;20.50;99.90;;;;;;5043037;28;20049;-44
2022/06/29 04:40:26;;;;;;;5.85;3.92;;;20.00;99.90;;;;;;5042630;28;20052;-44
2022/06/29 04:42:52;;;;;;;4.75;4.25;;;19.50;99.90;;;;;;5034572;28;20099;-46
2022/06/29 04:48:03;;;;;;;8.20;4.40;;;18.90;99.90;;;;;;5028480;28;20578;-46
2022/06/29 04:50:29;;;;;;;4.93;3.85;;;18.60;99.90;;;;;;5043086;28;20059;-45
2022/06/29 04:52:55;;;;;;;6.85;4.30;;;18.40;99.90;;;;;;5042892;28;20052;-46
2022/06/29 04:55:22;;;;;;;7.47;4.22;;;18.20;99.90;;;;;;5042774;28;20086;-45
2022/06/29 04:57:47;;;;;;;4.65;3.75;;;18.10;99.90;;;;;;5042789;28;20064;-45
2022/06/29 05:00:13;;;;;;;4.75;4.35;;;18.00;99.90;;;;;;5042476;28;20053;-44
2022/06/29 05:02:39;;;;;;;8.43;4.07;;;17.80;99.90;;;;;;5043222;28;20049;-45
2022/06/29 05:05:05;;;;;;;5.38;4.30;;;17.70;99.90;;;;;;5043163;28;20045;-43
2022/06/29 05:07:31;;;;;;;5.53;4.47;;;17.90;99.90;;;;;;5042761;28;20041;-44
2022/06/29 05:10:03;;;;;;;7.60;4.47;;;18.00;99.90;;;;;;5003485;28;20055;-44
2022/06/29 05:12:29;;;;;;;6.07;4.53;;;18.30;99.90;;;;;;5041779;28;20100;-46
2022/06/29 05:14:54;;;;;;;7.22;4.00;;;19.10;99.90;;;;;;5042926;28;20136;-44
2022/06/29 05:17:20;;;;;;;5.60;3.63;;;19.30;99.90;;;;;;5042697;28;20282;-44
2022/06/29 05:19:46;;;;;;;6.95;4.57;;;19.40;99.90;;;;;;5023939;28;20061;-46
2022/06/29 05:22:12;;;;;;;5.32;4.40;;;20.10;99.90;;;;;;5035180;28;20041;-44
2022/06/29 05:24:38;;;;;;;4.90;4.40;;;20.60;99.90;;;;;;5041778;28;20442;-45
2022/06/29 05:27:05;;;;;;;5.63;5.00;;;20.60;99.90;;;;;;5042974;28;20094;-44
2022/06/29 05:29:31;;;;;;;6.38;4.25;;;20.60;99.90;;;;;;5021763;28;20049;-45
2022/06/29 05:31:57;;;;;;;8.43;4.03;;;21.10;99.90;;;;;;5041214;28;20090;-45
2022/06/29 05:34:23;;;;;;;4.97;4.00;;;21.20;99.90;;;;;;5029069;28;20045;-44
2022/06/29 05:36:49;;;;;;;6.45;4.80;;;21.70;99.90;;;;;;5046431;28;20053;-45
2022/06/29 05:39:14;;;;;;;5.38;4.35;;;23.00;99.90;;;;;;5044439;28;20115;-45
2022/06/29 05:41:40;;;;;;;5.13;3.88;;;24.30;99.90;;;;;;5037778;28;20053;-45
2022/06/29 05:44:06;;;;;;;5.00;3.72;;;25.70;99.00;;;;;;5042161;28;20044;-45
2022/06/29 05:46:32;;;;;;;6.55;3.63;;;26.70;97.40;;;;;;5041582;28;20380;-46
2022/06/29 05:48:58;;;;;;;4.53;3.85;;;27.20;96.30;;;;;;5041132;28;20570;-45
2022/06/29 05:51:24;;;;;;;4.95;3.53;;;27.90;95.00;;;;;;5041198;28;20517;-46
2022/06/29 05:53:50;;;;;;;6.18;3.40;;;28.70;94.60;;;;;;5032781;28;20072;-46
2022/06/29 05:56:16;;;;;;;6.18;3.60;;;29.40;94.40;;;;;;5025135;28;20059;-45
2022/06/29 05:58:42;;;;;;;4.60;3.20;;;29.90;93.10;;;;;;5023845;28;20049;-44
2022/06/29 06:01:09;;;;;;;5.13;3.45;;;30.20;92.60;;;;;;5041650;28;20055;-45
2022/06/29 06:03:36;;;;;;;4.10;3.60;;;30.80;92.00;;;;;;5000922;28;20059;-45
2022/06/29 06:06:02;;;;;;;4.40;3.22;;;31.20;91.40;;;;;;5041623;28;20932;-46
2022/06/29 06:08:28;;;;;;;6.93;3.45;;;31.20;90.70;;;;;;5036704;28;20056;-47
2022/06/29 06:10:53;;;;;;;6.80;3.28;;;31.40;90.20;;;;;;5037563;28;20415;-45
2022/06/29 06:13:20;;;;;;;3.97;3.25;;;31.30;88.10;;;;;;5057993;28;20379;-45
2022/06/29 06:15:47;;;;;;;6.53;3.30;;;31.40;89.40;;;;;;5044053;28;20049;-47
2022/06/29 06:18:14;;;;;;;5.22;3.17;;;32.20;88.70;;;;;;5042443;28;20103;-45
2022/06/29 06:20:40;;;;;;;4.53;3.28;;;32.50;87.50;;;;;;5036009;28;20143;-45
2022/06/29 06:23:06;;;;;;;4.20;2.85;;;32.60;85.60;;;;;;5061559;28;20044;-45
2022/06/29 06:25:33;;;;;;;4.82;3.40;;;33.00;85.70;;;;;;5032663;28;20052;-45
2022/06/29 06:28:00;;;;;;;11.63;3.70;;;33.20;84.20;;;;;;5060601;28;20060;-46
2022/06/29 06:30:27;;;;;;;5.30;3.08;;;33.50;83.60;;;;;;5042470;28;20082;-45
2022/06/29 06:32:53;;;;;;;3.85;2.72;;;33.90;82.80;;;;;;5061345;28;20484;-45
2022/06/29 06:35:20;;;;;;;4.32;2.80;;;34.10;82.90;;;;;;5061266;28;20044;-47
2022/06/29 06:37:46;;;;;;;4.82;3.15;;;34.80;79.90;;;;;;5031375;28;20049;-46
2022/06/29 06:42:57;;;;;;;3.28;2.78;;;35.00;79.30;;;;;;5034711;28;20493;-46
2022/06/29 06:45:23;;;;;;;4.97;2.80;;;35.20;78.90;;;;;;5041249;28;20318;-45
2022/06/29 06:47:49;;;;;;;6.05;2.97;;;34.90;78.20;;;;;;5033023;28;20460;-46
2022/06/29 06:50:15;;;;;;;7.80;2.67;;;34.90;77.80;;;;;;5032106;28;20053;-46
2022/06/29 06:52:41;;;;;;;3.95;2.50;;;35.10;77.60;;;;;;5024648;28;20044;-47
2022/06/29 06:55:07;;;;;;;4.13;2.72;;;34.80;77.60;;;;;;5061457;28;20475;-49
2022/06/29 06:57:33;;;;;;;4.03;2.65;;;35.10;77.10;;;;;;5060400;28;20057;-46
2022/06/29 06:59:59;;;;;;;3.58;2.47;;;35.20;77.60;;;;;;5041191;28;20140;-46
2022/06/29 07:02:24;;;;;;;3.83;2.25;;;35.40;76.60;;;;;;5057845;28;20806;-48
2022/06/29 07:04:50;;;;;;;2.97;1.92;;;35.50;75.00;;;;;;5024305;28;20544;-44
2022/06/29 07:07:17;;;;;;;3.97;2.42;;;35.20;77.00;;;;;;5040931;28;20052;-45
2022/06/29 07:09:42;;;;;;;4.90;2.25;;;35.10;74.50;;;;;;5032154;28;20092;-43
2022/06/29 07:12:09;;;;;;;2.53;1.90;;;35.00;73.70;;;;;;5019719;28;20590;-44
2022/06/29 07:14:34;;;;;;;4.35;2.38;;;34.60;75.40;;;;;;5020236;28;20467;-43
2022/06/29 07:17:00;;;;;;;4.43;2.08;;;34.90;75.70;;;;;;5020517;28;20049;-44
2022/06/29 07:19:26;;;;;;;3.40;2.30;;;35.30;74.70;;;;;;5019855;28;20041;-45
2022/06/29 07:21:52;;;;;;;5.55;2.08;;;35.00;74.60;;;;;;5037858;28;20094;-45
2022/06/29 07:24:18;;;;;;;5.40;2.22;;;35.10;75.20;;;;;;5012136;28;20049;-45
2022/06/29 07:26:43;;;;;;;4.93;2.28;;;35.00;74.00;;;;;;5018359;28;20802;-42
2022/06/29 07:29:09;;;;;;;5.10;2.35;;;34.60;73.30;;;;;;5025325;28;20045;-46
2022/06/29 07:31:35;;;;;;;4.38;2.38;;;33.60;73.90;;;;;;4992941;28;20053;-43
2022/06/29 07:34:00;;;;;;;4.55;2.17;;;32.60;75.60;;;;;;5022999;28;20044;-44
2022/06/29 07:36:26;;;;;;;4.25;2.60;;;31.80;77.20;;;;;;5040753;28;20049;-42
2022/06/29 07:38:52;;;;;;;4.13;2.50;;;31.40;75.90;;;;;;5021777;28;20060;-47
2022/06/29 07:41:18;;;;;;;4.32;2.60;;;30.90;76.80;;;;;;5020446;28;20089;-46
2022/06/29 07:43:44;;;;;;;4.63;2.53;;;30.80;78.10;;;;;;5020729;28;20046;-45
2022/06/29 07:46:10;;;;;;;3.45;2.00;;;30.60;77.90;;;;;;5019911;28;20128;-46
2022/06/29 07:48:36;;;;;;;6.40;2.67;;;30.40;78.80;;;;;;5022690;28;20049;-48
2022/06/29 07:51:02;;;;;;;2.97;2.28;;;30.20;79.80;;;;;;5019590;28;20052;-45
2022/06/29 07:53:28;;;;;;;3.95;2.50;;;30.20;79.10;;;;;;5022817;28;20089;-47
2022/06/29 07:55:54;;;;;;;5.95;2.42;;;29.90;79.20;;;;;;5020513;28;20052;-46
2022/06/29 07:58:20;;;;;;;3.88;2.28;;;29.80;80.60;;;;;;5019192;28;20546;-46
2022/06/29 08:00:47;;;;;;;11.63;2.53;;;29.80;80.60;;;;;;5002729;28;20116;-45
2022/06/29 08:03:13;;;;;;;3.25;2.40;;;29.80;79.40;;;;;;5001346;28;20088;-45
2022/06/29 08:05:39;;;;;;;5.15;2.42;;;29.50;81.00;;;;;;5019319;28;20240;-46
2022/06/29 08:08:06;;;;;;;7.28;2.30;;;29.60;80.20;;;;;;5030788;28;20132;-46
2022/06/29 08:10:35;;;;;;;5.90;2.40;;;29.40;80.70;;;;;;5032160;28;20080;-47
2022/06/29 08:13:01;;;;;;;6.45;2.10;;;29.10;80.10;;;;;;5054233;28;20044;-48
2022/06/29 08:15:28;;;;;;;3.60;2.30;;;29.20;82.60;;;;;;5038036;28;20105;-46
2022/06/29 08:17:54;;;;;;;4.72;2.10;;;29.10;81.60;;;;;;5038040;28;20053;-46
2022/06/29 08:20:23;;;;;;;6.15;2.95;;;29.10;80.00;;;;;;5051652;28;20056;-45
2022/06/29 08:22:49;;;;;;;6.78;2.40;;;28.90;82.80;;;;;;5057087;28;20394;-45
2022/06/29 08:25:15;;;;;;;4.82;2.53;;;28.70;81.50;;;;;;5041376;28;20095;-46
2022/06/29 08:27:41;;;;;;;3.45;2.30;;;28.70;80.90;;;;;;5039821;28;20893;-47
2022/06/29 08:30:09;;;;;;;5.63;2.58;;;28.70;81.90;;;;;;5021598;28;20338;-46
2022/06/29 08:32:35;;;;;;;2.85;2.13;;;28.70;82.70;;;;;;5053340;28;20143;-50
2022/06/29 08:35:01;;;;;;;3.63;2.55;;;28.80;81.30;;;;;;5040246;28;20296;-48
2022/06/29 08:37:30;;;;;;;3.65;2.30;;;28.70;80.80;;;;;;5032306;28;20049;-45
2022/06/29 08:39:56;;;;;;;3.83;2.00;;;28.70;80.00;;;;;;5037710;28;20053;-46
2022/06/29 08:42:23;;;;;;;3.22;2.17;;;28.50;80.90;;;;;;5040168;28;20060;-48
2022/06/29 08:44:50;;;;;;;4.55;2.13;;;28.60;82.60;;;;;;5003682;28;20054;-46
2022/06/29 08:47:16;;;;;;;5.93;2.35;;;28.60;83.30;;;;;;5001887;28;20073;-45
2022/06/29 08:49:44;;;;;;;5.13;2.10;;;28.60;80.90;;;;;;5018748;28;20049;-46
2022/06/29 08:52:10;;;;;;;4.45;2.80;;;28.40;81.70;;;;;;5019234;28;20404;-45
2022/06/29 08:54:40;;;;;;;3.85;2.55;;;28.20;84.40;;;;;;5019031;28;20550;-45
2022/06/29 08:57:07;;;;;;;5.95;2.47;;;28.20;83.10;;;;;;5019306;28;20053;-46
2022/06/29 08:59:34;;;;;;;4.53;2.20;;;28.20;83.10;;;;;;5019639;28;20472;-46
2022/06/29 09:02:01;;;;;;;4.57;2.47;;;28.20;83.50;;;;;;5019481;28;20595;-47
2022/06/29 09:04:27;;;;;;;3.15;2.10;;;28.20;84.20;;;;;;5020155;28;20050;-45
2022/06/29 09:06:54;;;;;;;3.63;2.55;;;28.20;85.30;;;;;;5019250;28;20068;-46
2022/06/29 09:09:20;;;;;;;4.30;1.90;;;28.30;82.10;;;;;;5020631;28;20353;-45
2022/06/29 09:11:46;;;;;;;6.63;2.50;;;28.40;82.00;;;;;;5004470;28;20050;-45
2022/06/29 09:14:12;;;;;;;6.63;2.53;;;28.40;82.90;;;;;;5021909;28;20045;-48
2022/06/29 09:17:01;;;;;;;4.13;2.47;;;28.50;85.10;;;;;;5023676;28;20051;-46
2022/06/29 09:19:42;;;;;;;5.80;2.00;;;28.70;83.40;;;;;;5037934;28;20412;-47
2022/06/29 09:22:08;;;;;;;2.80;1.92;;;28.80;84.70;;;;;;4979949;28;20098;-45
2022/06/29 09:24:34;;;;;;;4.40;1.83;;;28.80;83.30;;;;;;5015096;28;20373;-46
2022/06/29 09:27:06;;;;;;;5.68;2.10;;;28.70;82.70;;;;;;5012277;28;20049;-49
2022/06/29 09:29:39;;;;;;;3.17;2.03;;;28.50;83.60;;;;;;5037655;28;20139;-47
2022/06/29 09:32:05;;;;;;;4.30;2.08;;;28.40;84.10;;;;;;5041783;28;20068;-46
2022/06/29 09:34:34;;;;;;;2.58;2.28;;;28.40;82.80;;;;;;5042872;28;20048;-45
2022/06/29 09:37:02;;;;;;;3.88;2.17;;;28.40;82.20;;;;;;5038388;28;20056;-47
2022/06/29 09:39:46;;;;;;;3.75;2.20;;;28.50;82.00;;;;;;5032989;28;20127;-46
2022/06/29 09:42:17;;;;;;;3.38;2.08;;;28.50;84.00;;;;;;5022833;28;20056;-46
2022/06/29 09:44:44;;;;;;;4.15;2.22;;;28.60;84.00;;;;;;5023753;28;20160;-46
2022/06/29 09:47:16;;;;;;;6.38;3.60;;;28.70;85.00;;;;;;5022613;28;20056;-48
2022/06/29 09:49:43;;;;;;;4.25;2.25;;;28.80;85.10;;;;;;5002797;28;20140;-47
2022/06/29 09:52:10;;;;;;;5.03;2.50;;;28.80;83.80;;;;;;5023928;28;20085;-47
2022/06/29 09:54:46;;;;;;;6.05;2.13;;;28.80;83.60;;;;;;5026970;28;20058;-46
2022/06/29 09:57:13;;;;;;;2.90;2.13;;;28.80;84.20;;;;;;5024352;28;20101;-46
2022/06/29 10:02:35;;;;;;;4.55;2.20;;;28.70;84.10;;;;;;5021499;28;20057;-47
2022/06/29 10:05:04;;;;;;;3.67;2.50;;;28.70;83.70;;;;;;5019425;28;20454;-47
2022/06/29 10:07:31;;;;;;;7.63;2.40;;;28.80;83.50;;;;;;5035450;28;20195;-47
2022/06/29 10:09:59;;;;;;;4.15;2.40;;;28.90;85.40;;;;;;5003224;28;20152;-47
2022/06/29 10:15:42;;;;;;;3.65;2.05;;;29.10;86.80;;;;;;5030994;28;20388;-45
2022/06/29 10:18:29;;;;;;;4.00;1.90;;;29.30;84.70;;;;;;5021110;28;20112;-47
2022/06/29 10:20:57;;;;;;;2.30;2.05;;;29.50;84.00;;;;;;5018061;28;20107;-46
2022/06/29 10:23:42;;;;;;;5.05;2.20;;;29.60;83.70;;;;;;4998929;28;20051;-45
2022/06/29 10:26:37;;;;;;;3.63;2.00;;;29.60;85.90;;;;;;4993797;28;20081;-46
2022/06/29 10:29:06;;;;;;;2.58;1.60;;;29.70;81.90;;;;;;4996641;28;20598;-47
2022/06/29 10:31:50;;;;;;;2.50;2.00;;;29.70;81.90;;;;;;5019534;28;20124;-45
2022/06/29 10:37:05;;;;;;;3.97;2.03;;;29.60;80.00;;;;;;5041864;28;20399;-45
2022/06/29 10:39:43;;;;;;;4.78;2.17;;;29.50;77.00;;;;;;5045418;28;20446;-49
2022/06/29 10:45:18;;;;;;;5.53;2.35;;;29.50;80.50;;;;;;5061540;28;20510;-46
2022/06/29 10:47:52;;;;;;;5.30;2.15;;;29.40;79.30;;;;;;5061863;28;20561;-47
2022/06/29 10:50:20;;;;;;;3.45;2.15;;;29.40;80.40;;;;;;5060386;28;20055;-45
2022/06/29 10:52:47;;;;;;;4.50;1.95;;;29.50;81.60;;;;;;5046377;28;20041;-45
2022/06/29 10:55:14;;;;;;;4.60;2.00;;;29.50;79.80;;;;;;5040558;28;20048;-47
2022/06/29 10:57:44;;;;;;;2.67;1.98;;;29.40;80.50;;;;;;5021665;28;20523;-48
2022/06/29 11:00:27;;;;;;;2.83;2.35;;;29.60;81.60;;;;;;5040015;28;20060;-46
2022/06/29 11:02:53;;;;;;;3.15;2.00;;;29.50;82.70;;;;;;5042236;28;20040;-46
2022/06/29 11:05:19;;;;;;;4.40;2.30;;;29.50;82.10;;;;;;5056400;28;20055;-45
2022/06/29 11:13:24;;;;;;;3.97;2.05;;;29.50;79.40;;;;;;5039632;28;20494;-47
2022/06/29 11:15:52;;;;;;;4.20;2.58;;;29.40;82.20;;;;;;5040159;28;20041;-46
2022/06/29 11:18:20;;;;;;;8.02;3.80;;;29.40;80.10;;;;;;5043232;28;20049;-48
2022/06/29 11:20:49;;;;;;;5.45;3.05;;;29.30;80.40;;;;;;5026837;28;20095;-45
2022/06/29 11:23:16;;;;;;;6.68;3.03;;;29.30;82.60;;;;;;5041821;28;20059;-47
2022/06/29 11:25:48;;;;;;;2.63;2.00;;;29.40;81.50;;;;;;5051055;28;20059;-47
2022/06/29 11:28:17;;;;;;;3.30;2.30;;;29.30;80.10;;;;;;5064862;28;20048;-47
2022/06/29 11:31:06;;;;;;;8.35;4.60;;;29.30;79.00;;;;;;5061910;28;20842;-48
2022/06/29 11:33:34;;;;;;;6.07;2.80;;;29.30;83.40;;;;;;5047402;28;20088;-49
2022/06/29 11:36:07;;;;;;;2.55;2.22;;;29.20;82.80;;;;;;5046990;28;20122;-49
2022/06/29 11:38:44;;;;;;;2.55;2.03;;;29.20;84.50;;;;;;5042425;28;20056;-46
2022/06/29 11:41:11;;;;;;;3.22;1.80;;;29.30;84.50;;;;;;5040137;28;20588;-47
2022/06/29 11:43:37;;;;;;;4.80;1.90;;;29.40;83.20;;;;;;5040218;28;20049;-46
2022/06/29 11:46:02;;;;;;;6.00;2.60;;;29.50;82.20;;;;;;5040243;28;20048;-45
2022/06/29 11:48:30;;;;;;;3.88;2.10;;;29.40;81.40;;;;;;5021698;28;20574;-46
2022/06/29 11:51:00;;;;;;;3.80;1.80;;;29.40;79.10;;;;;;5039675;28;20049;-47
2022/06/29 11:53:53;;;;;;;57.75;8.18;;;29.50;78.60;;;;;;5021842;28;20057;-46
2022/06/29 11:56:23;;;;;;;3.53;1.70;;;29.40;77.00;;;;;;5040436;28;20053;-48
2022/06/29 11:58:52;;;;;;;6.07;1.90;;;29.20;78.70;;;;;;5044688;28;20563;-45
2022/06/29 12:01:22;;;;;;;2.72;1.85;;;29.20;76.30;;;;;;5039698;28;20131;-45
2022/06/29 12:03:49;;;;;;;3.85;1.67;;;29.20;82.80;;;;;;5022130;28;20376;-45
2022/06/29 12:06:16;;;;;;;4.07;2.00;;;29.30;81.50;;;;;;5020129;28;20529;-46
2022/06/29 12:08:42;;;;;;;3.28;1.80;;;29.20;80.50;;;;;;4999470;28;20107;-46
2022/06/29 12:11:08;;;;;;;2.45;1.75;;;29.20;77.60;;;;;;5035914;28;20503;-46
2022/06/29 12:13:34;;;;;;;4.47;1.70;;;29.10;76.40;;;;;;5036387;28;20491;-46
2022/06/29 12:16:00;;;;;;;3.47;1.65;;;29.00;76.70;;;;;;5034834;28;20059;-47
2022/06/29 12:18:26;;;;;;;2.80;1.90;;;29.10;77.20;;;;;;5039049;28;20056;-48
2022/06/29 12:20:52;;;;;;;5.32;1.88;;;29.10;77.90;;;;;;5039560;28;20123;-46
2022/06/29 12:23:17;;;;;;;2.50;1.75;;;29.20;80.00;;;;;;5039891;28;20052;-45
2022/06/29 12:25:44;;;;;;;4.22;2.22;;;29.10;80.20;;;;;;5037699;28;20048;-46
2022/06/29 12:28:11;;;;;;;4.57;1.80;;;29.10;82.00;;;;;;5037369;28;20597;-48
2022/06/29 12:30:38;;;;;;;4.88;1.98;;;29.20;81.10;;;;;;5056656;28;20374;-45
2022/06/29 12:33:06;;;;;;;3.65;1.80;;;29.20;82.20;;;;;;5030841;28;20533;-46
2022/06/29 12:35:31;;;;;;;2.90;1.88;;;29.20;80.90;;;;;;5040450;28;20063;-46
2022/06/29 12:37:57;;;;;;;2.08;1.80;;;29.20;80.50;;;;;;5041765;28;20044;-46
2022/06/29 12:40:28;;;;;;;3.00;2.15;;;29.20;80.10;;;;;;5042831;28;20521;-47
2022/06/29 12:42:54;;;;;;;3.20;1.80;;;29.30;78.10;;;;;;5040207;28;20055;-46
2022/06/29 12:45:20;;;;;;;2.70;1.98;;;29.30;80.50;;;;;;5025155;28;20052;-47
2022/06/29 12:47:46;;;;;;;7.78;2.50;;;29.40;80.00;;;;;;5025761;28;20162;-46
2022/06/29 12:50:12;;;;;;;2.70;2.50;;;29.40;76.70;;;;;;5046179;28;20126;-46
2022/06/29 12:52:42;;;;;;;3.67;2.40;;;29.20;76.40;;;;;;5064051;28;20047;-47
2022/06/29 12:55:09;;;;;;;3.85;2.50;;;29.20;76.60;;;;;;5029559;28;20148;-46
2022/06/29 12:57:35;;;;;;;7.75;2.20;;;29.20;78.20;;;;;;5059406;28;20056;-46
2022/06/29 13:00:02;;;;;;;4.78;2.50;;;29.10;79.70;;;;;;5061055;28;20174;-46
2022/06/29 13:02:30;;;;;;;5.25;2.63;;;28.80;79.60;;;;;;5031186;28;20163;-47
2022/06/29 13:04:55;;;;;;;5.75;2.80;;;28.70;80.90;;;;;;5026067;28;20423;-47
2022/06/29 13:07:26;;;;;;;4.40;2.58;;;28.80;84.30;;;;;;5044669;28;20053;-51
2022/06/29 13:09:54;;;;;;;5.07;3.10;;;29.00;83.70;;;;;;5028928;28;20127;-45
2022/06/29 13:12:21;;;;;;;4.15;2.97;;;29.10;80.90;;;;;;5046123;28;20051;-47
2022/06/29 13:14:48;;;;;;;3.00;2.70;;;29.10;79.10;;;;;;5043486;28;20053;-46
2022/06/29 13:17:14;;;;;;;6.40;2.58;;;29.30;82.80;;;;;;5042994;28;20107;-46
2022/06/29 13:19:41;;;;;;;5.97;2.40;;;29.40;81.60;;;;;;5017927;28;20440;-46